»·PEaware :: N3610E KSNA-KCRQ

N3610E :: KSNA-KCRQ

FLIGHT INFORMATION

Flight Status: Arrived
Operator: Privately registered:
United States
More flights under this callsign
Pilot: John C. (12173)
Aircraft: CESSNA 172 SKYHAWK
(C172)
More flights by this aircraft type
Origin: KSNA John Wayne-Orange Co
United States
Destination: KCRQ McClellan-Palomar
United States
More flights between these airports :: More routes between these airports
Route: V23 OCN
File this flight plan on PilotEdge
Remarks:
Altitude:
(Current/Filed)
3,000ft
Speed:
(Current/Filed)
100kts
Departed: 08-Jan-18 03:01 PM
Arrived: 08-Jan-18 03:56 PM
Distance/Time
Traveled:
44nm/0:54
Distance/Time
To Go:
Arrived

Flight Plot

Page will automatically refresh every two minutes.


Map Options




Map Legend


Flown Route
Filed Route
Departure Airport
Arrival Airport
Navaid (VOR, NDB)
Fix

Horizontal Profiles

Position Reports

Time Latitude Longitude Heading Altitude Ground
Speed
08-Jan-18 14:57 33.676181 -117.870979 219 50ft 0kts
08-Jan-18 14:58 33.676181 -117.870979 219 50ft 0kts
08-Jan-18 14:59 33.676181 -117.870979 219 50ft 0kts
08-Jan-18 15:00 33.676181 -117.870979 219 50ft 0kts
08-Jan-18 15:01 33.676181 -117.870979 219 50ft 0kts
08-Jan-18 15:02 33.676181 -117.870979 219 50ft 0kts
08-Jan-18 15:03 33.676181 -117.870979 219 50ft 0kts
08-Jan-18 15:04 33.677006 -117.869514 27 48ft 18kts
08-Jan-18 15:05 33.681273 -117.866732 85 41ft 9kts
08-Jan-18 15:06 33.680589 -117.865735 196 40ft 9kts
08-Jan-18 15:07 33.667348 -117.874099 208 66ft 53kts
08-Jan-18 15:08 33.676175 -117.870964 219 50ft 0kts
08-Jan-18 15:09 33.675842 -117.870259 40 50ft 15kts
08-Jan-18 15:10 33.681229 -117.866408 98 40ft 0kts
08-Jan-18 15:11 33.681229 -117.866408 98 40ft 0kts
08-Jan-18 15:12 33.672851 -117.870423 205 230ft 84kts
08-Jan-18 15:13 33.653907 -117.877082 185 1139ft 87kts
08-Jan-18 15:14 33.625372 -117.879717 183 2352ft 91kts
08-Jan-18 15:15 33.604182 -117.881334 184 3157ft 94kts
08-Jan-18 15:16 33.591240 -117.852137 105 4173ft 96kts
08-Jan-18 15:17 33.575422 -117.832324 139 4849ft 99kts
08-Jan-18 15:18 33.551346 -117.808216 144 4974ft 118kts
08-Jan-18 15:19 33.524334 -117.786868 154 4928ft 117kts
08-Jan-18 15:20 33.501695 -117.759801 120 4957ft 112kts
08-Jan-18 15:21 33.484539 -117.728013 126 4971ft 114kts
08-Jan-18 15:22 33.465098 -117.697916 125 5009ft 114kts
08-Jan-18 15:23 33.445965 -117.667458 121 5051ft 114kts
08-Jan-18 15:24 33.428250 -117.640665 126 5080ft 104kts
08-Jan-18 15:25 33.406605 -117.616663 131 4949ft 106kts
08-Jan-18 15:26 33.386819 -117.591504 128 4943ft 101kts
08-Jan-18 15:27 33.367317 -117.566973 133 4974ft 102kts
08-Jan-18 15:28 33.345895 -117.544550 132 4994ft 102kts
08-Jan-18 15:29 33.324327 -117.522596 139 5013ft 103kts
08-Jan-18 15:30 33.304761 -117.498280 130 5025ft 102kts
08-Jan-18 15:31 33.283646 -117.475460 130 5046ft 102kts
08-Jan-18 15:32 33.264186 -117.450988 127 5054ft 102kts
08-Jan-18 15:33 33.246427 -117.424968 125 5068ft 101kts
08-Jan-18 15:34 33.238157 -117.394927 93 5112ft 99kts
08-Jan-18 15:35 33.233906 -117.363050 103 5315ft 99kts
08-Jan-18 15:36 33.231250 -117.330814 101 5419ft 98kts
08-Jan-18 15:37 33.227150 -117.298699 95 5435ft 100kts
08-Jan-18 15:38 33.223165 -117.265445 95 5312ft 102kts
08-Jan-18 15:39 33.221479 -117.231954 71 5248ft 100kts
08-Jan-18 15:40 33.234277 -117.202306 63 5346ft 102kts
08-Jan-18 15:41 33.247395 -117.172155 78 5382ft 102kts
08-Jan-18 15:42 33.259334 -117.140367 68 5350ft 106kts
08-Jan-18 15:43 33.274493 -117.110450 69 5330ft 106kts
08-Jan-18 15:44 33.288245 -117.075526 64 5275ft 124kts
08-Jan-18 15:45 33.293971 -117.043434 142 5271ft 113kts
08-Jan-18 15:46 33.283440 -117.016469 66 5296ft 130kts
08-Jan-18 15:47 33.297702 -116.980693 83 5275ft 129kts
08-Jan-18 15:48 33.278184 -116.956542 172 5263ft 106kts
08-Jan-18 15:49 33.251863 -116.938446 162 5330ft 109kts
08-Jan-18 15:50 33.223692 -116.937812 200 5396ft 100kts
08-Jan-18 15:51 33.199683 -116.951918 218 5313ft 99kts
08-Jan-18 15:52 33.181670 -116.970134 233 4902ft 102kts
08-Jan-18 15:53 33.175423 -117.001467 263 4442ft 104kts
08-Jan-18 15:54 33.169515 -117.033557 246 4036ft 103kts
08-Jan-18 15:55 33.163049 -117.065409 256 3681ft 105kts
08-Jan-18 15:56 33.157480 -117.099504 257 3332ft 105kts
08-Jan-18 15:57 33.151862 -117.133846 258 2820ft 105kts
08-Jan-18 15:58 33.146305 -117.168338 257 2195ft 107kts
08-Jan-18 15:59 33.141284 -117.203248 256 1584ft 107kts
08-Jan-18 16:00 33.135187 -117.237483 258 968ft 106kts
08-Jan-18 16:01 33.129833 -117.270421 256 383ft 80kts
08-Jan-18 16:02 33.127556 -117.282567 228 314ft 11kts
08-Jan-18 16:03 33.127356 -117.280537 88 311ft 14kts
08-Jan-18 16:04 33.127119 -117.279908 137 310ft 0kts
08-Jan-18 16:05 33.127119 -117.279908 137 310ft 0kts
08-Jan-18 16:06 33.127119 -117.279908 137 310ft 0kts
08-Jan-18 16:07 33.127119 -117.279908 137 310ft 0kts

Navigation Log

Ident Type
1. KSNA Airport
2. OCN Navaid
3. KCRQ Airport